createdAt,value
2018-04-27T00:00:54.145Z,12.90
2018-04-27T00:01:54.139Z,13.40
2018-04-27T00:02:54.133Z,14.40
2018-04-27T00:03:54.126Z,14.50
2018-04-27T00:04:54.119Z,11.00
2018-04-27T00:05:54.113Z,10.70
2018-04-27T00:06:54.107Z,11.90
2018-04-27T00:07:54.099Z,12.60
2018-04-27T00:08:54.103Z,11.90
2018-04-27T00:09:54.096Z,11.70
2018-04-27T00:10:54.081Z,12.70
2018-04-27T00:11:54.080Z,12.20
2018-04-27T00:12:54.072Z,10.70
2018-04-27T00:13:54.066Z,12.50
2018-04-27T00:14:54.055Z,12.10
2018-04-27T00:15:54.049Z,9.40
2018-04-27T00:16:54.043Z,10.20
2018-04-27T00:17:54.035Z,11.10
2018-04-27T00:18:54.029Z,14.80
2018-04-27T00:19:54.022Z,12.90
2018-04-27T00:20:54.015Z,11.90
2018-04-27T00:21:54.008Z,8.90
2018-04-27T00:22:54.007Z,16.80
2018-04-27T00:23:54.000Z,10.10
2018-04-27T00:24:53.988Z,11.50
2018-04-27T00:25:53.981Z,11.30
2018-04-27T00:26:53.980Z,14.70
2018-04-27T00:27:53.973Z,14.00
2018-04-27T00:28:53.960Z,11.00
2018-04-27T00:29:53.955Z,10.10
2018-04-27T00:30:53.948Z,14.10
2018-04-27T00:31:53.942Z,12.50
2018-04-27T00:32:53.936Z,12.20
2018-04-27T00:33:53.928Z,11.40
2018-04-27T00:34:53.926Z,13.30
2018-04-27T00:35:53.919Z,12.40
2018-04-27T00:36:53.908Z,11.60
2018-04-27T00:37:53.901Z,12.90
2018-04-27T00:38:53.895Z,9.00
2018-04-27T00:39:53.888Z,9.60
2018-04-27T00:40:53.881Z,8.90
2018-04-27T00:41:53.874Z,12.10
2018-04-27T00:42:53.869Z,13.20
2018-04-27T00:43:53.861Z,15.20
2018-04-27T00:44:53.854Z,14.50
2018-04-27T00:45:53.848Z,12.10
2018-04-27T00:46:53.845Z,10.60
2018-04-27T00:47:53.839Z,14.50
2018-04-27T00:48:53.879Z,13.90
2018-04-27T00:49:53.820Z,10.20
2018-04-27T00:50:53.814Z,9.60
2018-04-27T00:51:53.806Z,10.40
2018-04-27T00:52:53.803Z,14.30
2018-04-27T00:53:53.797Z,13.30
2018-04-27T00:54:53.786Z,10.00
2018-04-27T00:55:53.779Z,13.30
2018-04-27T00:56:53.772Z,11.70
2018-04-27T00:57:53.764Z,8.60
2018-04-27T00:58:53.759Z,12.60
2018-04-27T00:59:53.752Z,14.10
2018-04-27T01:00:53.745Z,15.30
2018-04-27T01:01:53.737Z,8.10
2018-04-27T01:02:53.731Z,15.20
2018-04-27T01:03:53.723Z,12.60
2018-04-27T01:04:53.721Z,11.40
2018-04-27T01:05:53.715Z,9.80
2018-04-27T01:06:53.708Z,12.20
2018-04-27T01:07:53.701Z,15.90
2018-04-27T01:08:53.689Z,11.00
2018-04-27T01:09:53.683Z,8.60
2018-04-27T01:10:53.676Z,13.40
2018-04-27T01:11:53.670Z,15.60
2018-04-27T01:12:53.662Z,10.90
2018-04-27T01:13:53.656Z,12.40
2018-04-27T01:14:53.648Z,12.40
2018-04-27T01:15:53.641Z,11.50
2018-04-27T01:16:53.634Z,10.00
2018-04-27T01:17:53.627Z,11.80
2018-04-27T01:18:53.625Z,11.80
2018-04-27T01:19:53.618Z,9.20
2018-04-27T01:20:53.606Z,19.50
2018-04-27T01:21:53.600Z,12.80
2018-04-27T01:22:53.592Z,11.90
2018-04-27T01:23:53.586Z,10.30
2018-04-27T01:24:53.582Z,11.80
2018-04-27T01:25:53.575Z,11.00
2018-04-27T01:26:53.564Z,11.10
2018-04-27T01:27:53.557Z,14.20
2018-04-27T01:28:53.549Z,8.60
2018-04-27T01:29:53.542Z,9.10
2018-04-27T01:30:53.535Z,8.90
2018-04-27T01:31:53.528Z,9.80
2018-04-27T01:32:53.520Z,10.10
2018-04-27T01:33:53.513Z,9.60
2018-04-27T01:34:53.507Z,8.60
2018-04-27T01:35:53.500Z,15.00
2018-04-27T01:36:53.494Z,8.60
2018-04-27T01:37:53.489Z,8.90
2018-04-27T01:38:53.476Z,10.90
2018-04-27T01:39:53.471Z,12.90
2018-04-27T01:40:53.465Z,12.00
2018-04-27T01:41:53.465Z,8.30
2018-04-27T01:42:53.450Z,11.80
2018-04-27T01:43:53.442Z,10.90
2018-04-27T01:44:53.438Z,8.60
2018-04-27T01:45:53.431Z,11.70
2018-04-27T01:46:53.420Z,10.60
2018-04-27T01:47:53.413Z,13.80
2018-04-27T01:48:53.410Z,13.80
2018-04-27T01:49:53.403Z,17.70
2018-04-27T01:50:53.392Z,11.50
2018-04-27T01:51:53.385Z,13.80
2018-04-27T01:52:53.377Z,10.30
2018-04-27T01:53:53.370Z,12.50
2018-04-27T01:54:53.364Z,13.50
2018-04-27T01:55:53.356Z,11.10
2018-04-27T01:56:53.352Z,12.00
2018-04-27T01:57:53.342Z,11.30
2018-04-27T01:58:53.339Z,11.70
2018-04-27T01:59:53.331Z,14.50
2018-04-27T02:00:53.319Z,8.90
2018-04-27T02:01:53.312Z,11.00
2018-04-27T02:02:53.308Z,7.00
2018-04-27T02:03:53.301Z,12.10
2018-04-27T02:04:53.290Z,12.40
2018-04-27T02:05:53.282Z,11.00
2018-04-27T02:06:53.276Z,10.70
2018-04-27T02:07:53.272Z,13.80
2018-04-27T02:08:53.261Z,8.70
2018-04-27T02:09:53.253Z,9.10
2018-04-27T02:10:53.246Z,15.50
2018-04-27T02:11:53.240Z,18.70
2018-04-27T02:12:53.223Z,12.30
2018-04-27T02:13:53.214Z,12.00
2018-04-27T02:14:53.207Z,13.80
2018-04-27T02:15:53.205Z,10.70
2018-04-27T02:16:53.197Z,9.70
2018-04-27T02:17:53.209Z,11.00
2018-04-27T02:18:53.178Z,11.20
2018-04-27T02:19:53.172Z,13.50
2018-04-27T02:20:53.242Z,13.20
2018-04-27T02:21:53.161Z,14.20
2018-04-27T02:22:53.151Z,12.00
2018-04-27T02:23:53.154Z,12.50
2018-04-27T02:24:53.134Z,8.40
2018-04-27T02:25:53.128Z,11.50
2018-04-27T02:26:53.122Z,9.90
2018-04-27T02:27:53.113Z,11.90
2018-04-27T02:28:53.106Z,11.60
2018-04-27T02:29:53.099Z,9.20
2018-04-27T02:30:53.097Z,13.00
2018-04-27T02:31:53.089Z,13.10
2018-04-27T02:32:53.077Z,11.60
2018-04-27T02:33:53.070Z,12.40
2018-04-27T02:34:53.066Z,16.80
2018-04-27T02:35:53.059Z,12.90
2018-04-27T02:36:53.048Z,10.20
2018-04-27T02:37:53.041Z,12.60
2018-04-27T02:38:53.033Z,10.30
2018-04-27T02:39:53.026Z,11.40
2018-04-27T02:40:53.017Z,9.90
2018-04-27T02:41:53.010Z,11.20
2018-04-27T02:42:53.007Z,8.10
2018-04-27T02:43:53.000Z,12.10
2018-04-27T02:44:52.992Z,12.40
2018-04-27T02:45:52.986Z,12.30
2018-04-27T02:46:52.976Z,10.50
2018-04-27T02:47:52.967Z,9.20
2018-04-27T02:48:52.959Z,18.10
2018-04-27T02:49:52.954Z,13.10
2018-04-27T02:50:52.950Z,12.50
2018-04-27T02:51:52.944Z,11.50
2018-04-27T02:52:52.940Z,13.80
2018-04-27T02:53:52.932Z,16.60
2018-04-27T02:54:52.922Z,11.60
2018-04-27T02:55:52.916Z,10.40
2018-04-27T02:56:52.903Z,9.40
2018-04-27T02:57:52.912Z,12.10
2018-04-27T02:58:52.891Z,12.40
2018-04-27T02:59:52.884Z,12.30
2018-04-27T03:00:52.880Z,8.60
2018-04-27T03:01:52.873Z,10.00
2018-04-27T03:02:52.862Z,10.20
2018-04-27T03:03:52.858Z,11.90
2018-04-27T03:04:52.848Z,15.30
2018-04-27T03:05:52.842Z,13.50
2018-04-27T03:06:52.834Z,12.60
2018-04-27T03:07:52.828Z,11.70
2018-04-27T03:08:52.821Z,10.50
2018-04-27T03:09:52.816Z,14.00
2018-04-27T03:10:52.806Z,10.20
2018-04-27T03:11:52.799Z,14.00
2018-04-27T03:12:52.800Z,11.10
2018-04-27T03:13:52.791Z,12.20
2018-04-27T03:14:52.782Z,10.10
2018-04-27T03:15:52.776Z,8.60
2018-04-27T03:16:52.764Z,14.40
2018-04-27T03:17:52.757Z,14.10
2018-04-27T03:18:52.751Z,15.00
2018-04-27T03:19:52.744Z,8.80
2018-04-27T03:20:52.737Z,9.60
2018-04-27T03:21:52.730Z,13.80
2018-04-27T03:22:52.723Z,9.80
2018-04-27T03:23:52.750Z,10.20
2018-04-27T03:24:52.709Z,10.20
2018-04-27T03:25:52.702Z,9.00
2018-04-27T03:26:52.699Z,13.80
2018-04-27T03:27:52.693Z,12.00
2018-04-27T03:28:52.681Z,14.40
2018-04-27T03:29:52.679Z,9.60
2018-04-27T03:30:52.672Z,11.40
2018-04-27T03:31:52.661Z,16.30
2018-04-27T03:32:52.658Z,11.20
2018-04-27T03:33:52.650Z,13.30
2018-04-27T03:34:52.640Z,13.30
2018-04-27T03:35:52.633Z,13.40
2018-04-27T03:36:52.627Z,8.70
2018-04-27T03:37:52.617Z,13.90
2018-04-27T03:38:52.610Z,11.30
2018-04-27T03:39:52.607Z,12.70
2018-04-27T03:40:52.596Z,13.90
2018-04-27T03:41:52.589Z,13.30
2018-04-27T03:42:52.586Z,11.30
2018-04-27T03:43:52.575Z,13.90
2018-04-27T03:44:52.571Z,11.10
2018-04-27T03:45:52.564Z,10.70
2018-04-27T03:46:52.553Z,7.20
2018-04-27T03:47:52.545Z,12.70
2018-04-27T03:48:52.538Z,13.60
2018-04-27T03:49:52.533Z,9.30
2018-04-27T03:50:52.522Z,10.80
2018-04-27T03:51:52.528Z,11.30
2018-04-27T03:52:52.513Z,9.20
2018-04-27T03:53:52.505Z,11.20
2018-04-27T03:54:52.494Z,13.80
2018-04-27T03:55:52.487Z,16.30
2018-04-27T03:56:52.483Z,13.80
2018-04-27T03:57:52.476Z,9.70
2018-04-27T03:58:52.465Z,14.30
2018-04-27T03:59:52.457Z,15.10
2018-04-27T04:00:52.452Z,9.70
2018-04-27T04:01:52.442Z,11.70
2018-04-27T04:02:52.435Z,10.70
2018-04-27T04:03:52.428Z,11.90
2018-04-27T04:04:52.419Z,9.70
2018-04-27T04:05:52.412Z,12.60
2018-04-27T04:06:52.412Z,12.30
2018-04-27T04:07:52.403Z,12.20
2018-04-27T04:08:52.388Z,10.50
2018-04-27T04:09:52.382Z,14.90
2018-04-27T04:10:52.378Z,8.70
2018-04-27T04:11:52.371Z,10.30
2018-04-27T04:12:52.359Z,12.40
2018-04-27T04:13:52.352Z,12.50
2018-04-27T04:14:52.345Z,17.10
2018-04-27T04:15:52.338Z,16.60
2018-04-27T04:16:52.330Z,10.30
2018-04-27T04:17:52.321Z,13.30
2018-04-27T04:18:52.314Z,15.20
2018-04-27T04:19:52.308Z,12.10
2018-04-27T04:20:52.300Z,11.80
2018-04-27T04:21:52.293Z,12.70
2018-04-27T04:22:52.284Z,9.70
2018-04-27T04:23:52.277Z,10.40
2018-04-27T04:24:52.274Z,15.20
2018-04-27T04:25:52.268Z,12.30
2018-04-27T04:26:52.255Z,11.90
2018-04-27T04:27:52.248Z,13.70
2018-04-27T04:28:52.244Z,8.20
2018-04-27T04:29:52.241Z,13.90
2018-04-27T04:30:52.225Z,11.70
2018-04-27T04:31:52.220Z,14.60
2018-04-27T04:32:52.211Z,14.70
2018-04-27T04:33:52.203Z,12.20
2018-04-27T04:34:52.196Z,11.70
2018-04-27T04:35:52.190Z,11.10
2018-04-27T04:36:52.182Z,12.10
2018-04-27T04:37:52.175Z,10.90
2018-04-27T04:38:52.174Z,8.40
2018-04-27T04:39:52.165Z,13.80
2018-04-27T04:40:52.153Z,12.90
2018-04-27T04:41:52.146Z,12.50
2018-04-27T04:42:52.143Z,10.90
2018-04-27T04:43:52.143Z,10.10
2018-04-27T04:44:52.124Z,10.60
2018-04-27T04:45:52.117Z,6.60
2018-04-27T04:46:52.112Z,11.50
2018-04-27T04:47:52.103Z,12.80
2018-04-27T04:48:52.097Z,9.00
2018-04-27T04:49:52.089Z,16.50
2018-04-27T04:50:52.087Z,8.10
2018-04-27T04:51:52.081Z,9.70
2018-04-27T04:52:52.069Z,8.30
2018-04-27T04:53:52.068Z,11.10
2018-04-27T04:54:52.058Z,7.70
2018-04-27T04:55:52.051Z,9.80
2018-04-27T04:56:52.045Z,9.10
2018-04-27T04:57:52.038Z,11.40
2018-04-27T04:58:52.033Z,10.40
2018-04-27T04:59:52.034Z,9.70
2018-04-27T05:00:52.043Z,9.50
2018-04-27T05:01:52.021Z,8.70
2018-04-27T05:02:52.048Z,9.80
2018-04-27T05:03:52.011Z,11.20
2018-04-27T05:04:52.002Z,18.40
2018-04-27T05:05:51.997Z,12.40
2018-04-27T05:06:51.992Z,13.40
2018-04-27T05:07:51.993Z,10.20
2018-04-27T05:08:51.989Z,11.10
2018-04-27T05:09:51.983Z,10.40
2018-04-27T05:10:51.991Z,11.80
2018-04-27T05:11:51.971Z,16.00
2018-04-27T05:12:51.966Z,10.50
2018-04-27T05:13:51.961Z,9.50
2018-04-27T05:14:51.958Z,10.50
2018-04-27T05:15:51.954Z,14.30
2018-04-27T05:16:51.949Z,14.30
2018-04-27T05:17:51.946Z,13.10
2018-04-27T05:18:51.940Z,12.60
2018-04-27T05:19:51.937Z,10.20
2018-04-27T05:20:51.937Z,15.90
2018-04-27T05:21:51.932Z,12.00
2018-04-27T05:22:51.928Z,16.40
2018-04-27T05:23:51.924Z,12.10
2018-04-27T05:24:51.914Z,14.20
2018-04-27T05:25:51.910Z,16.80
2018-04-27T05:26:51.906Z,12.20
2018-04-27T05:27:51.903Z,13.50
2018-04-27T05:28:51.897Z,11.50
2018-04-27T05:29:51.895Z,11.40
2018-04-27T05:30:51.888Z,11.00
2018-04-27T05:31:51.888Z,10.80
2018-04-27T05:32:51.879Z,11.00
2018-04-27T05:33:51.875Z,12.10
2018-04-27T05:34:51.876Z,12.00
2018-04-27T05:35:51.872Z,12.00
2018-04-27T05:36:51.863Z,11.70
2018-04-27T05:37:51.861Z,15.10
2018-04-27T05:38:51.855Z,10.80
2018-04-27T05:39:51.856Z,11.60
2018-04-27T05:40:51.851Z,10.30
2018-04-27T05:41:51.849Z,11.30
2018-04-27T05:42:51.841Z,10.40
2018-04-27T05:43:51.839Z,10.40
2018-04-27T05:44:51.835Z,9.30
2018-04-27T05:45:51.833Z,11.10
2018-04-27T05:46:51.829Z,14.70
2018-04-27T05:47:51.832Z,11.30
2018-04-27T05:48:51.824Z,11.80
2018-04-27T05:49:51.825Z,10.90
2018-04-27T05:50:51.820Z,10.50
2018-04-27T05:51:51.822Z,11.90
2018-04-27T05:52:51.821Z,11.60
2018-04-27T05:53:51.819Z,11.10
2018-04-27T05:54:51.819Z,10.20
2018-04-27T05:55:51.821Z,11.30
2018-04-27T05:56:51.813Z,11.60
2018-04-27T05:57:51.813Z,11.10
2018-04-27T05:58:51.810Z,11.10
2018-04-27T05:59:51.811Z,11.20
2018-04-27T06:00:51.809Z,10.50
2018-04-27T06:01:51.809Z,10.50
2018-04-27T06:02:51.810Z,10.00
2018-04-27T06:03:51.810Z,10.00
2018-04-27T06:04:51.809Z,11.80
2018-04-27T06:05:51.810Z,13.40
2018-04-27T06:06:51.819Z,10.10
2018-04-27T06:07:51.816Z,11.00
2018-04-27T06:08:51.811Z,10.20
2018-04-27T06:09:51.813Z,10.80
2018-04-27T06:10:51.813Z,11.90
2018-04-27T06:11:51.815Z,43.90
2018-04-27T06:12:51.819Z,10.80
2018-04-27T06:13:51.822Z,29.20
2018-04-27T06:14:51.818Z,13.00
2018-04-27T06:15:51.819Z,14.50
2018-04-27T06:16:51.820Z,11.20
2018-04-27T06:17:51.821Z,10.90
2018-04-27T06:18:51.823Z,10.50
2018-04-27T06:19:51.831Z,14.00
2018-04-27T06:20:51.826Z,10.40
2018-04-27T06:21:51.829Z,10.40
2018-04-27T06:22:51.830Z,23.90
2018-04-27T06:23:51.907Z,11.10
2018-04-27T06:24:51.839Z,11.20
2018-04-27T06:25:51.842Z,12.80
2018-04-27T06:26:51.844Z,12.00
2018-04-27T06:27:51.847Z,27.30
2018-04-27T06:28:51.846Z,639.00
2018-04-27T06:29:51.848Z,1482.60
2018-04-27T06:30:51.851Z,1999.90
2018-04-27T06:31:51.921Z,1999.90
2018-04-27T06:32:51.858Z,1999.90
2018-04-27T06:33:51.862Z,1999.90
2018-04-27T06:34:51.867Z,1999.90
2018-04-27T06:35:51.870Z,1999.90
2018-04-27T06:36:51.873Z,1999.90
2018-04-27T06:37:51.877Z,1999.90
2018-04-27T06:38:51.887Z,1999.90
2018-04-27T06:39:51.892Z,1999.90
2018-04-27T06:40:51.889Z,1999.90
2018-04-27T06:41:51.894Z,1999.90
2018-04-27T06:42:51.898Z,1999.90
2018-04-27T06:43:51.909Z,1999.90
2018-04-27T06:44:51.912Z,1999.90
2018-04-27T06:45:51.917Z,1999.90
2018-04-27T06:46:51.917Z,1999.90
2018-04-27T06:47:51.923Z,1999.90
2018-04-27T06:48:51.927Z,1999.90
2018-04-27T06:49:51.932Z,1999.90
2018-04-27T06:50:51.937Z,1999.90
2018-04-27T06:51:51.943Z,1999.90
2018-04-27T06:52:51.951Z,1999.90
2018-04-27T06:53:51.953Z,1999.90
2018-04-27T06:54:51.959Z,1999.90
2018-04-27T06:55:51.965Z,1999.90
2018-04-27T06:56:51.973Z,1999.90
2018-04-27T06:57:51.980Z,1999.90
2018-04-27T06:58:51.981Z,1999.90
2018-04-27T06:59:51.987Z,1999.90
2018-04-27T07:00:51.991Z,1999.90
2018-04-27T07:01:52.001Z,1999.90
2018-04-27T07:02:52.003Z,1999.90
2018-04-27T07:03:52.009Z,1999.90
2018-04-27T07:04:52.017Z,1999.90
2018-04-27T07:05:52.023Z,1999.90
2018-04-27T07:06:52.023Z,1999.90
2018-04-27T07:07:52.029Z,1999.90
2018-04-27T07:08:52.038Z,1999.90
2018-04-27T07:09:52.044Z,1424.60
2018-04-27T07:10:52.045Z,1999.90
2018-04-27T07:11:52.051Z,891.50
2018-04-27T07:12:52.057Z,687.10
2018-04-27T07:13:52.062Z,915.80
2018-04-27T07:14:52.069Z,1999.90
2018-04-27T07:15:52.074Z,1999.90
2018-04-27T07:16:52.154Z,1607.60
2018-04-27T07:17:52.083Z,1038.10
2018-04-27T07:18:52.093Z,1999.90
2018-04-27T07:19:52.099Z,1999.90
2018-04-27T07:20:52.099Z,1999.90
2018-04-27T07:21:52.104Z,1999.90
2018-04-27T07:22:52.115Z,1999.90
2018-04-27T07:23:52.120Z,1999.90
2018-04-27T07:24:52.120Z,1999.90
2018-04-27T07:25:52.223Z,1999.90
2018-04-27T07:26:52.130Z,521.40
2018-04-27T07:27:52.135Z,249.30
2018-04-27T07:28:52.140Z,804.50
2018-04-27T07:29:52.173Z,537.90
2018-04-27T07:30:52.150Z,560.30
2018-04-27T07:31:52.155Z,462.30
2018-04-27T07:32:52.162Z,691.40
2018-04-27T07:33:52.166Z,1469.10
2018-04-27T07:34:52.169Z,1999.90
2018-04-27T07:35:52.179Z,1800.60
2018-04-27T07:36:52.184Z,134.80
2018-04-27T07:37:52.190Z,538.50
2018-04-27T07:38:52.189Z,581.90
2018-04-27T07:39:52.194Z,180.00
2018-04-27T07:40:52.208Z,254.20
2018-04-27T07:41:52.207Z,187.30
2018-04-27T07:42:52.212Z,1164.30
2018-04-27T07:43:52.214Z,1041.00
2018-04-27T07:44:52.218Z,1999.90
2018-04-27T07:45:52.222Z,1999.90
2018-04-27T07:46:52.227Z,1999.90
2018-04-27T07:47:52.232Z,1999.90
2018-04-27T07:48:52.235Z,1999.90
2018-04-27T07:49:52.241Z,1999.90
2018-04-27T07:50:52.249Z,1999.90
2018-04-27T07:51:52.254Z,1999.90
2018-04-27T07:52:52.252Z,1999.90
2018-04-27T07:53:52.256Z,1999.90
2018-04-27T07:54:52.268Z,1999.90
2018-04-27T07:55:52.270Z,1525.50
2018-04-27T07:56:52.268Z,1999.90
2018-04-27T07:57:52.276Z,1999.90
2018-04-27T07:58:52.277Z,1999.90
2018-04-27T07:59:52.282Z,1999.90
2018-04-27T08:00:52.287Z,78.50
2018-04-27T08:01:52.288Z,1999.90
2018-04-27T08:02:52.295Z,201.20
2018-04-27T08:03:52.299Z,271.70
2018-04-27T08:04:52.297Z,417.70
2018-04-27T08:05:52.303Z,109.70
2018-04-27T08:06:52.308Z,12.50
2018-04-27T08:07:52.312Z,11.80
2018-04-27T08:08:52.379Z,12.40
2018-04-27T08:09:52.319Z,11.10
2018-04-27T08:10:52.325Z,10.70
2018-04-27T08:11:52.340Z,11.00
2018-04-27T08:12:52.335Z,41.60
2018-04-27T08:13:52.340Z,9.90
2018-04-27T08:14:52.351Z,9.10
2018-04-27T08:15:52.355Z,8.60
2018-04-27T08:16:52.356Z,8.10
2018-04-27T08:17:52.363Z,8.90
2018-04-27T08:18:52.370Z,7.60
2018-04-27T08:19:52.374Z,7.80
2018-04-27T08:20:52.386Z,7.30
2018-04-27T08:21:52.391Z,7.60
2018-04-27T08:22:52.394Z,9.40
2018-04-27T08:23:52.401Z,7.20
2018-04-27T08:24:52.408Z,7.30
2018-04-27T08:25:52.416Z,7.40
2018-04-27T08:26:52.476Z,7.20
2018-04-27T08:27:52.431Z,8.70
2018-04-27T08:28:52.438Z,7.50
2018-04-27T08:29:52.449Z,7.10
2018-04-27T08:30:52.454Z,7.80
2018-04-27T08:31:52.462Z,8.10
2018-04-27T08:32:52.476Z,9.40
2018-04-27T08:33:52.482Z,6.90
2018-04-27T08:34:52.491Z,7.10
2018-04-27T08:35:52.499Z,6.90
2018-04-27T08:36:52.503Z,9.30
2018-04-27T08:37:52.511Z,8.50
2018-04-27T08:38:52.524Z,11.40
2018-04-27T08:39:52.529Z,7.20
2018-04-27T08:40:52.537Z,6.80
2018-04-27T08:41:52.545Z,9.10
2018-04-27T08:42:52.554Z,7.20
2018-04-27T08:43:52.622Z,7.40
2018-04-27T08:44:52.571Z,7.90
2018-04-27T08:45:52.579Z,7.00
2018-04-27T08:46:52.593Z,7.40
2018-04-27T08:47:52.603Z,10.00
2018-04-27T08:48:52.605Z,10.40
2018-04-27T08:49:52.615Z,8.60
2018-04-27T08:50:52.625Z,7.40
2018-04-27T08:51:52.633Z,7.50
2018-04-27T08:52:52.645Z,8.30
2018-04-27T08:53:52.653Z,7.60
2018-04-27T08:54:52.659Z,7.90
2018-04-27T08:55:52.667Z,8.90
2018-04-27T08:56:52.674Z,8.00
2018-04-27T08:57:52.682Z,9.20
2018-04-27T08:58:52.690Z,7.90
2018-04-27T08:59:52.699Z,7.60
2018-04-27T09:00:52.707Z,9.30
2018-04-27T09:01:52.719Z,9.50
2018-04-27T09:02:52.723Z,7.90
2018-04-27T09:03:52.734Z,8.50
2018-04-27T09:04:52.743Z,10.90
2018-04-27T09:05:52.751Z,9.00
2018-04-27T09:06:52.756Z,8.70
2018-04-27T09:07:52.763Z,11.40
2018-04-27T09:08:52.771Z,8.80
2018-04-27T09:09:52.778Z,13.00
2018-04-27T09:10:52.785Z,10.20
2018-04-27T09:11:52.793Z,8.80
2018-04-27T09:12:52.804Z,9.20
2018-04-27T09:13:52.812Z,9.50
2018-04-27T09:14:52.813Z,11.60
2018-04-27T09:15:52.823Z,8.70
2018-04-27T09:16:52.833Z,8.80
2018-04-27T09:17:52.841Z,8.80
2018-04-27T09:18:52.841Z,9.60
2018-04-27T09:19:52.849Z,8.90
2018-04-27T09:20:52.856Z,9.70
2018-04-27T09:21:52.862Z,9.20
2018-04-27T09:22:52.869Z,9.20
2018-04-27T09:23:52.877Z,14.60
2018-04-27T09:24:52.881Z,10.40
2018-04-27T09:25:52.889Z,10.00
2018-04-27T09:26:52.942Z,9.70
2018-04-27T09:27:52.907Z,13.80
2018-04-27T09:28:52.909Z,10.20
2018-04-27T09:29:52.916Z,10.60
2018-04-27T09:30:52.927Z,10.10
2018-04-27T09:31:52.934Z,10.00
2018-04-27T09:32:52.936Z,9.50
2018-04-27T09:33:52.944Z,9.90
2018-04-27T09:34:52.950Z,10.00
2018-04-27T09:35:52.957Z,9.60
2018-04-27T09:36:52.963Z,8.80
2018-04-27T09:37:52.970Z,9.40
2018-04-27T09:38:52.977Z,10.40
2018-04-27T09:39:52.984Z,8.60
2018-04-27T09:40:52.990Z,11.00
2018-04-27T09:41:52.997Z,8.40
2018-04-27T09:42:53.004Z,9.60
2018-04-27T09:43:53.011Z,10.60
2018-04-27T09:44:53.020Z,11.80
2018-04-27T09:45:53.028Z,8.80
2018-04-27T09:46:53.031Z,10.80
2018-04-27T09:47:53.040Z,10.40
2018-04-27T09:48:53.048Z,9.60
2018-04-27T09:49:53.055Z,10.40
2018-04-27T09:50:53.057Z,9.20
2018-04-27T09:51:53.063Z,9.20
2018-04-27T09:52:53.070Z,8.90
2018-04-27T09:53:53.076Z,9.20
2018-04-27T09:54:53.083Z,9.20
2018-04-27T09:55:53.090Z,10.60
2018-04-27T09:56:53.096Z,11.50
2018-04-27T09:57:53.102Z,9.50
2018-04-27T09:58:53.112Z,13.20
2018-04-27T09:59:53.119Z,11.20
2018-04-27T10:00:53.120Z,11.40
2018-04-27T10:01:53.128Z,9.80
2018-04-27T10:02:53.139Z,8.70
2018-04-27T10:03:53.154Z,9.10
2018-04-27T10:04:53.152Z,11.10
2018-04-27T10:05:53.159Z,10.70
2018-04-27T10:06:53.162Z,9.30
2018-04-27T10:07:53.169Z,8.30
2018-04-27T10:08:53.176Z,9.40
2018-04-27T10:09:53.184Z,9.30
2018-04-27T10:10:53.196Z,9.00
2018-04-27T10:11:53.202Z,8.80
2018-04-27T10:12:53.209Z,10.00
2018-04-27T10:13:53.218Z,8.20
2018-04-27T10:14:53.220Z,7.80
2018-04-27T10:15:53.227Z,13.40
2018-04-27T10:16:53.238Z,8.10
2018-04-27T10:17:53.241Z,9.30
2018-04-27T10:18:53.248Z,10.10
2018-04-27T10:19:53.256Z,8.50
2018-04-27T10:20:53.263Z,8.90
2018-04-27T10:21:53.271Z,8.80
2018-04-27T10:22:53.281Z,8.90
2018-04-27T10:23:53.286Z,10.20
2018-04-27T10:24:53.297Z,8.20
2018-04-27T10:25:53.304Z,8.80
2018-04-27T10:26:53.312Z,8.30
2018-04-27T10:27:53.320Z,7.70
2018-04-27T10:28:53.322Z,7.00
2018-04-27T10:29:53.331Z,10.50
2018-04-27T10:30:53.347Z,8.60
2018-04-27T10:31:53.348Z,8.30
2018-04-27T10:32:53.354Z,7.80
2018-04-27T10:33:53.361Z,8.20
2018-04-27T10:34:53.369Z,8.40
2018-04-27T10:35:53.376Z,9.60
2018-04-27T10:36:53.382Z,7.50
2018-04-27T10:37:53.390Z,8.90
2018-04-27T10:38:53.401Z,9.70
2018-04-27T10:39:53.408Z,7.80
2018-04-27T10:40:53.412Z,9.10
2018-04-27T10:41:53.419Z,7.60
2018-04-27T10:42:53.426Z,9.40
2018-04-27T10:43:53.435Z,7.70
2018-04-27T10:44:53.444Z,10.50
2018-04-27T10:45:53.454Z,8.20
2018-04-27T10:46:53.454Z,10.30
2018-04-27T10:47:53.462Z,8.40
2018-04-27T10:48:53.468Z,9.70
2018-04-27T10:49:53.478Z,8.00
2018-04-27T10:50:53.487Z,8.20
2018-04-27T10:51:53.491Z,8.00
2018-04-27T10:52:53.498Z,8.20
2018-04-27T10:53:53.504Z,7.60
2018-04-27T10:54:53.511Z,8.30
2018-04-27T10:55:53.521Z,8.30
2018-04-27T10:56:53.530Z,7.90
2018-04-27T10:57:53.536Z,11.40
2018-04-27T10:58:53.543Z,8.30
2018-04-27T10:59:53.550Z,8.00
2018-04-27T11:00:53.553Z,8.00
2018-04-27T11:01:53.560Z,9.60
2018-04-27T11:02:53.568Z,8.50
2018-04-27T11:03:53.574Z,8.40
2018-04-27T11:04:53.581Z,8.30
2018-04-27T11:05:53.587Z,8.20
2018-04-27T11:06:53.595Z,10.10
2018-04-27T11:07:53.601Z,8.10
2018-04-27T11:08:53.608Z,8.60
2018-04-27T11:09:53.615Z,8.10
2018-04-27T11:10:53.706Z,8.10
2018-04-27T11:11:53.632Z,9.60
2018-04-27T11:12:53.634Z,8.20
2018-04-27T11:13:53.643Z,7.80
2018-04-27T11:14:53.648Z,8.20
2018-04-27T11:15:53.655Z,9.00
2018-04-27T11:16:54.082Z,8.00
2018-04-27T11:17:53.668Z,9.10
2018-04-27T11:18:53.678Z,7.90
2018-04-27T11:19:53.685Z,8.10
2018-04-27T11:20:53.686Z,8.00
2018-04-27T11:21:53.693Z,8.30
2018-04-27T11:22:53.704Z,7.60
2018-04-27T11:23:53.710Z,7.60
2018-04-27T11:24:53.712Z,7.60
2018-04-27T11:25:53.717Z,7.60
2018-04-27T11:26:53.724Z,7.60
2018-04-27T11:27:53.731Z,10.60
2018-04-27T11:28:53.736Z,7.80
2018-04-27T11:29:53.742Z,8.50
2018-04-27T11:30:53.749Z,8.00
2018-04-27T11:31:53.755Z,12.00
2018-04-27T11:32:53.761Z,9.20
2018-04-27T11:33:53.766Z,8.90
2018-04-27T11:34:53.780Z,10.40
2018-04-27T11:35:53.784Z,9.10
2018-04-27T11:36:53.787Z,8.70
2018-04-27T11:37:53.794Z,8.60
2018-04-27T11:38:53.795Z,9.00
2018-04-27T11:39:53.801Z,9.00
2018-04-27T11:40:53.811Z,9.00
2018-04-27T11:41:53.815Z,11.80
2018-04-27T11:42:53.817Z,9.20
2018-04-27T11:43:53.822Z,9.10
2018-04-27T11:44:53.826Z,12.00
2018-04-27T11:45:53.831Z,8.80
2018-04-27T11:46:53.838Z,10.40
2018-04-27T11:47:53.841Z,10.00
2018-04-27T11:48:53.845Z,8.80
2018-04-27T11:49:53.858Z,9.10
2018-04-27T11:50:53.860Z,10.60
2018-04-27T11:51:53.864Z,8.50
2018-04-27T11:52:53.863Z,8.50
2018-04-27T11:53:53.868Z,8.40
2018-04-27T11:54:53.877Z,10.10
2018-04-27T11:55:53.882Z,11.00
2018-04-27T11:56:53.881Z,9.70
2018-04-27T11:57:53.887Z,10.30
2018-04-27T11:58:53.890Z,8.50
2018-04-27T11:59:53.895Z,8.00
2018-04-27T12:00:53.898Z,8.50
2018-04-27T12:01:53.903Z,8.70
2018-04-27T12:02:53.908Z,8.70
2018-04-27T12:03:53.912Z,8.30
2018-04-27T12:04:53.915Z,11.60
2018-04-27T12:05:53.920Z,9.60
2018-04-27T12:06:53.923Z,8.50
2018-04-27T12:07:53.928Z,8.10
2018-04-27T12:08:53.935Z,9.10
2018-04-27T12:09:53.939Z,8.80
2018-04-27T12:10:53.939Z,9.40
2018-04-27T12:11:53.944Z,10.30
2018-04-27T12:12:53.951Z,9.10
2018-04-27T12:13:53.955Z,9.00
2018-04-27T12:14:53.955Z,9.20
2018-04-27T12:15:53.959Z,8.70
2018-04-27T12:16:53.962Z,8.90
2018-04-27T12:17:53.967Z,8.50
2018-04-27T12:18:53.970Z,8.60
2018-04-27T12:19:53.975Z,19.20
2018-04-27T12:20:53.982Z,9.20
2018-04-27T12:21:53.986Z,15.40
2018-04-27T12:22:53.986Z,9.50
2018-04-27T12:23:53.989Z,8.10
2018-04-27T12:24:53.992Z,8.70
2018-04-27T12:25:53.997Z,10.60
2018-04-27T12:26:54.000Z,8.30
2018-04-27T12:27:54.004Z,8.50
2018-04-27T12:28:54.007Z,9.90
2018-04-27T12:29:54.011Z,9.80
2018-04-27T12:30:54.103Z,8.80
2018-04-27T12:31:54.120Z,8.30
2018-04-27T12:32:54.026Z,9.20
2018-04-27T12:33:54.029Z,8.30
2018-04-27T12:34:54.033Z,8.20
2018-04-27T12:35:54.035Z,8.40
2018-04-27T12:36:54.033Z,8.10
2018-04-27T12:37:54.059Z,8.30
2018-04-27T12:38:54.115Z,8.20
2018-04-27T12:39:54.042Z,8.80
2018-04-27T12:40:54.045Z,8.80
2018-04-27T12:41:54.048Z,8.10
2018-04-27T12:42:54.050Z,8.00
2018-04-27T12:43:54.053Z,8.00
2018-04-27T12:44:54.056Z,8.50
2018-04-27T12:45:54.058Z,8.80
2018-04-27T12:46:54.064Z,8.40
2018-04-27T12:47:54.066Z,8.50
2018-04-27T12:48:54.064Z,8.90
2018-04-27T12:49:54.066Z,8.60
2018-04-27T12:50:54.074Z,11.10
2018-04-27T12:51:54.071Z,9.30
2018-04-27T12:52:54.076Z,10.90
2018-04-27T12:53:54.078Z,8.20
2018-04-27T12:54:54.076Z,8.20
2018-04-27T12:55:54.078Z,8.40
2018-04-27T12:56:54.079Z,8.40